createdAt,value
2019-01-27T00:04:32.652Z,306.80
2019-01-27T00:07:23.577Z,306.87
2019-01-27T00:13:30.101Z,313.60
2019-01-27T00:17:00.536Z,332.17
2019-01-27T00:19:51.829Z,307.17
2019-01-27T00:22:43.204Z,319.80
2019-01-27T00:25:34.127Z,324.20
2019-01-27T00:28:25.058Z,329.47
2019-01-27T00:31:54.944Z,324.57
2019-01-27T00:34:46.086Z,308.10
2019-01-27T00:37:37.147Z,297.83
2019-01-27T00:43:29.668Z,319.53
2019-01-27T00:46:13.680Z,308.20
2019-01-27T00:49:04.444Z,313.60
2019-01-27T00:52:34.443Z,308.37
2019-01-27T00:55:39.535Z,284.40
2019-01-27T00:58:30.234Z,293.03
2019-01-27T01:01:10.840Z,285.97
2019-01-27T01:07:31.594Z,297.97
2019-01-27T01:11:02.059Z,328.10
2019-01-27T01:14:12.328Z,289.93
2019-01-27T01:20:01.520Z,288.13
2019-01-27T01:22:53.575Z,268.13
2019-01-27T01:26:23.416Z,313.93
2019-01-27T01:29:53.231Z,284.07
2019-01-27T01:36:40.121Z,268.67
2019-01-27T01:39:31.844Z,263.87
2019-01-27T01:42:22.773Z,297.00
2019-01-27T01:45:09.191Z,294.67
2019-01-27T01:51:55.545Z,280.57
2019-01-27T01:54:46.473Z,290.67
2019-01-27T01:57:37.825Z,310.83
2019-01-27T02:01:08.280Z,320.80
2019-01-27T02:03:59.220Z,291.07
2019-01-27T02:06:50.082Z,306.00
2019-01-27T02:09:40.929Z,303.07
2019-01-27T02:13:11.139Z,292.93
2019-01-27T02:22:31.709Z,312.43
2019-01-27T02:26:01.732Z,307.47
2019-01-27T02:28:53.191Z,298.77
2019-01-27T02:31:48.041Z,303.93
2019-01-27T02:34:39.050Z,319.37
2019-01-27T02:37:50.848Z,333.87
2019-01-27T02:41:20.833Z,269.93
2019-01-27T02:44:23.050Z,303.90
2019-01-27T02:47:06.453Z,304.33
2019-01-27T02:50:16.182Z,323.77
2019-01-27T02:56:37.327Z,294.97
2019-01-27T03:02:29.577Z,318.73
2019-01-27T03:05:39.192Z,307.20
2019-01-27T03:15:41.386Z,271.30
2019-01-27T03:22:40.655Z,286.63
2019-01-27T03:25:31.589Z,258.30
2019-01-27T03:29:01.855Z,269.30
2019-01-27T03:31:53.326Z,238.30
2019-01-27T03:34:56.475Z,233.70
2019-01-27T03:37:36.703Z,261.83
2019-01-27T03:40:27.831Z,257.33
2019-01-27T03:43:57.820Z,260.20
2019-01-27T03:46:42.414Z,190.73
2019-01-27T03:50:12.426Z,283.47
2019-01-27T03:56:00.771Z,214.73
2019-01-27T03:58:51.940Z,187.47
2019-01-27T04:04:40.489Z,172.50
2019-01-27T04:07:32.442Z,146.27
2019-01-27T04:13:53.400Z,131.07
2019-01-27T04:16:58.783Z,146.93
2019-01-27T04:23:13.846Z,93.73
2019-01-27T04:26:04.849Z,96.93
2019-01-27T04:28:55.772Z,94.03
2019-01-27T04:32:26.022Z,93.07
2019-01-27T04:35:16.894Z,75.87
2019-01-27T04:41:24.439Z,60.13
2019-01-27T04:44:16.194Z,72.33
2019-01-27T04:47:01.435Z,59.93
2019-01-27T04:53:47.728Z,59.17
2019-01-27T04:56:59.697Z,55.53
2019-01-27T04:59:51.583Z,50.13
2019-01-27T05:03:21.862Z,52.67
2019-01-27T05:09:23.366Z,57.67
2019-01-27T05:12:33.342Z,57.20
2019-01-27T05:21:44.015Z,62.53
2019-01-27T05:24:34.991Z,76.60
2019-01-27T05:31:36.749Z,49.87
2019-01-27T05:34:27.670Z,58.73
2019-01-27T05:40:29.191Z,107.13
2019-01-27T05:43:20.364Z,90.93
2019-01-27T05:46:04.236Z,90.97
2019-01-27T05:48:55.916Z,138.43
2019-01-27T05:51:48.254Z,133.50
2019-01-27T05:54:39.145Z,135.57
2019-01-27T05:57:29.973Z,143.60
2019-01-27T06:03:25.399Z,140.13
2019-01-27T06:06:16.358Z,128.83
2019-01-27T06:09:10.726Z,135.67
2019-01-27T06:12:41.552Z,119.27
2019-01-27T06:19:28.434Z,121.47
2019-01-27T06:22:19.648Z,120.80
2019-01-27T06:25:30.734Z,98.13
2019-01-27T06:28:21.549Z,138.60
2019-01-27T06:31:12.571Z,146.43
2019-01-27T06:34:22.002Z,150.47
2019-01-27T06:37:13.780Z,143.63
2019-01-27T06:40:25.945Z,141.77
2019-01-27T06:43:16.896Z,132.50
2019-01-27T06:46:00.149Z,117.33
2019-01-27T06:48:51.451Z,142.13
2019-01-27T06:51:42.418Z,45.20
2019-01-27T06:54:33.997Z,16.23
2019-01-27T06:58:04.266Z,18.37
2019-01-27T07:01:14.088Z,12.80
2019-01-27T07:04:24.355Z,18.60
2019-01-27T07:11:10.741Z,16.27
2019-01-27T07:14:21.624Z,15.90
2019-01-27T07:17:31.102Z,15.70
2019-01-27T07:20:41.113Z,14.93
2019-01-27T07:23:39.819Z,13.83
2019-01-27T07:27:08.057Z,14.03
2019-01-27T07:33:47.308Z,12.40
2019-01-27T07:40:35.116Z,14.80
2019-01-27T07:44:04.794Z,13.47
2019-01-27T07:47:02.684Z,16.40
2019-01-27T07:53:30.605Z,13.17
2019-01-27T07:57:00.826Z,14.47
2019-01-27T08:03:30.777Z,15.23
2019-01-27T08:06:39.613Z,15.40
2019-01-27T08:09:48.573Z,16.13
2019-01-27T08:12:57.815Z,14.60
2019-01-27T08:16:06.802Z,15.33
2019-01-27T08:22:20.751Z,15.33
2019-01-27T08:28:46.402Z,16.53
2019-01-27T08:31:53.455Z,15.00
2019-01-27T08:35:02.705Z,13.77
2019-01-27T08:41:46.814Z,10.97
2019-01-27T08:44:55.968Z,11.87
2019-01-27T08:47:38.405Z,9.80
2019-01-27T08:51:07.992Z,11.27
2019-01-27T08:53:57.939Z,10.30
2019-01-27T08:56:48.008Z,10.23
2019-01-27T08:59:38.862Z,9.97
2019-01-27T09:03:08.685Z,9.87
2019-01-27T09:10:02.071Z,8.70
2019-01-27T09:13:11.431Z,8.23
2019-01-27T09:16:41.196Z,9.70
2019-01-27T09:19:49.962Z,9.57
2019-01-27T09:22:58.681Z,10.50
2019-01-27T09:26:07.435Z,11.07
2019-01-27T09:29:17.067Z,12.40
2019-01-27T09:32:26.744Z,11.37
2019-01-27T09:35:35.585Z,12.53
2019-01-27T09:38:44.383Z,11.97
2019-01-27T09:41:53.350Z,14.23
2019-01-27T09:45:02.414Z,16.30
2019-01-27T09:48:12.160Z,15.00
2019-01-27T09:51:20.980Z,15.43
2019-01-27T09:54:18.192Z,15.17
2019-01-27T10:00:43.350Z,15.17
2019-01-27T10:03:34.602Z,20.47
2019-01-27T10:06:42.739Z,20.53
2019-01-27T10:09:51.473Z,20.83
2019-01-27T10:13:00.249Z,17.50
2019-01-27T10:16:09.828Z,21.53
2019-01-27T10:19:19.016Z,22.73
2019-01-27T10:22:27.854Z,31.30
2019-01-27T10:29:12.053Z,27.60
2019-01-27T10:32:21.353Z,25.20
2019-01-27T10:35:30.221Z,32.00
2019-01-27T10:38:39.155Z,31.60
2019-01-27T10:41:47.983Z,34.43
2019-01-27T10:44:57.329Z,29.20
2019-01-27T10:48:26.938Z,29.33
2019-01-27T10:51:36.764Z,24.97
2019-01-27T10:54:45.510Z,25.20
2019-01-27T10:57:42.498Z,26.93
2019-01-27T11:00:51.528Z,28.23
2019-01-27T11:04:20.052Z,33.00
2019-01-27T11:07:18.025Z,26.37
2019-01-27T11:10:27.906Z,36.00
2019-01-27T11:13:35.621Z,26.40
2019-01-27T11:20:10.504Z,26.87
2019-01-27T11:23:19.312Z,27.73
2019-01-27T11:26:28.100Z,30.30
2019-01-27T11:29:37.470Z,27.63
2019-01-27T11:33:05.753Z,32.03
2019-01-27T11:36:14.623Z,27.33
2019-01-27T11:39:42.685Z,26.37
2019-01-27T11:42:42.057Z,24.47
2019-01-27T11:45:43.277Z,24.27
2019-01-27T11:48:52.053Z,24.53
2019-01-27T11:52:01.356Z,25.00
2019-01-27T11:54:52.403Z,25.03
2019-01-27T12:01:12.504Z,24.83
2019-01-27T12:13:32.812Z,21.77
2019-01-27T12:16:42.453Z,21.53
2019-01-27T12:23:40.537Z,16.47
2019-01-27T12:27:10.156Z,16.47
2019-01-27T12:40:22.730Z,18.70
2019-01-27T12:43:52.529Z,16.00
2019-01-27T12:46:36.038Z,16.60
2019-01-27T12:59:17.500Z,26.93
2019-01-27T13:05:25.465Z,26.97
2019-01-27T13:08:16.507Z,29.53
2019-01-27T13:11:46.191Z,31.57
2019-01-27T13:18:45.925Z,25.03
2019-01-27T13:24:53.075Z,22.60
2019-01-27T13:27:46.150Z,23.27
2019-01-27T13:30:56.144Z,23.10
2019-01-27T13:37:29.768Z,17.53
2019-01-27T13:40:10.820Z,23.10
2019-01-27T13:43:01.491Z,21.07
2019-01-27T13:45:44.505Z,23.70
2019-01-27T13:48:34.885Z,28.77
2019-01-27T13:51:25.458Z,25.27
2019-01-27T13:54:16.948Z,22.30
2019-01-27T13:57:07.310Z,29.30
2019-01-27T13:59:58.330Z,31.90
2019-01-27T14:02:48.414Z,29.53
2019-01-27T14:05:45.610Z,41.07
2019-01-27T14:09:18.738Z,37.13
2019-01-27T14:16:06.118Z,29.23
2019-01-27T14:18:57.450Z,23.60
2019-01-27T14:22:28.906Z,29.47
2019-01-27T14:25:21.288Z,27.87
2019-01-27T14:28:12.339Z,29.83
2019-01-27T14:31:14.697Z,29.70
2019-01-27T14:33:55.107Z,25.17
2019-01-27T14:36:45.302Z,28.63
2019-01-27T14:39:35.693Z,26.13
2019-01-27T14:45:34.463Z,19.00
2019-01-27T14:48:25.391Z,21.87
2019-01-27T14:51:57.129Z,17.97
2019-01-27T14:54:47.217Z,27.90
2019-01-27T14:57:38.287Z,20.83
2019-01-27T15:00:49.326Z,20.30
2019-01-27T15:03:39.702Z,17.40
2019-01-27T15:06:49.917Z,19.03
2019-01-27T15:09:39.954Z,19.77
2019-01-27T15:12:49.975Z,23.23
2019-01-27T15:15:41.495Z,18.50
2019-01-27T15:18:34.043Z,18.30
2019-01-27T15:21:27.344Z,21.13
2019-01-27T15:24:36.376Z,19.07
2019-01-27T15:27:26.515Z,20.57
2019-01-27T15:30:38.143Z,21.27
2019-01-27T15:33:28.672Z,23.40
2019-01-27T15:36:32.752Z,18.53
2019-01-27T15:42:26.831Z,17.87
2019-01-27T15:45:11.048Z,16.77
2019-01-27T15:51:18.254Z,16.13
2019-01-27T15:54:10.419Z,17.30
2019-01-27T15:57:00.581Z,14.70
2019-01-27T16:03:06.861Z,14.90
2019-01-27T16:06:36.831Z,13.33
2019-01-27T16:09:27.026Z,16.03
2019-01-27T16:25:38.716Z,14.37
2019-01-27T16:28:30.140Z,16.57
2019-01-27T16:31:40.840Z,14.90
2019-01-27T16:35:10.833Z,15.63
2019-01-27T16:41:31.889Z,39.77
2019-01-27T16:47:31.711Z,43.00
2019-01-27T16:50:59.631Z,40.30
2019-01-27T16:53:50.485Z,43.70
2019-01-27T16:59:56.556Z,45.50
2019-01-27T17:03:26.469Z,45.77
2019-01-27T17:09:33.379Z,48.90
2019-01-27T17:15:59.428Z,43.60
2019-01-27T17:19:31.098Z,42.03
2019-01-27T17:22:21.319Z,40.07
2019-01-27T17:25:13.306Z,38.73
2019-01-27T17:28:22.866Z,39.60
2019-01-27T17:31:13.028Z,38.73
2019-01-27T17:34:22.629Z,41.57
2019-01-27T17:37:25.097Z,39.97
2019-01-27T17:43:22.052Z,38.43
2019-01-27T17:46:05.894Z,35.10
2019-01-27T17:52:05.678Z,36.33
2019-01-27T17:54:55.683Z,43.40
2019-01-27T17:58:04.496Z,48.70
2019-01-27T18:01:13.320Z,46.07
2019-01-27T18:04:13.678Z,42.90
2019-01-27T18:07:20.343Z,46.37
2019-01-27T18:10:51.185Z,41.23
2019-01-27T18:14:00.495Z,40.60
2019-01-27T18:16:50.940Z,49.97
2019-01-27T18:19:41.497Z,51.37
2019-01-27T18:22:31.495Z,49.67
2019-01-27T18:25:21.639Z,53.97
2019-01-27T18:28:51.900Z,61.23
2019-01-27T18:31:43.167Z,52.27
2019-01-27T18:34:33.273Z,65.60
2019-01-27T18:38:03.757Z,100.27
2019-01-27T18:40:53.847Z,75.03
2019-01-27T18:43:45.449Z,101.63
2019-01-27T18:46:28.380Z,115.63
2019-01-27T18:49:20.161Z,136.20
2019-01-27T18:52:11.530Z,123.10
2019-01-27T18:58:09.125Z,138.90
2019-01-27T19:01:18.769Z,121.00
2019-01-27T19:10:48.760Z,140.20
2019-01-27T19:13:55.670Z,142.90
2019-01-27T19:17:05.410Z,135.47
2019-01-27T19:20:02.058Z,160.53
2019-01-27T19:23:10.550Z,175.67
2019-01-27T19:26:08.802Z,156.40
2019-01-27T19:29:18.107Z,154.50
2019-01-27T19:32:40.184Z,152.03
2019-01-27T19:35:58.827Z,142.57
2019-01-27T19:39:22.308Z,117.93
2019-01-27T19:42:19.591Z,129.60
2019-01-27T19:45:49.682Z,129.33
2019-01-27T19:48:58.951Z,128.17
2019-01-27T19:52:07.894Z,124.03
2019-01-27T19:55:16.708Z,138.40
2019-01-27T20:02:16.210Z,136.50
2019-01-27T20:05:46.439Z,131.47
2019-01-27T20:08:55.371Z,133.63
2019-01-27T20:12:25.676Z,165.93
2019-01-27T20:16:10.760Z,178.23
2019-01-27T20:19:27.132Z,166.90
2019-01-27T20:22:36.602Z,170.23
2019-01-27T20:25:46.637Z,198.83
2019-01-27T20:28:56.605Z,201.13
2019-01-27T20:35:04.193Z,261.17
2019-01-27T20:38:14.201Z,155.53
2019-01-27T20:41:42.879Z,254.97
2019-01-27T20:45:12.496Z,209.80
2019-01-27T20:48:14.517Z,199.80
2019-01-27T20:51:23.744Z,213.87
2019-01-27T20:54:33.112Z,183.03
2019-01-27T21:07:13.608Z,104.43
2019-01-27T21:10:13.112Z,102.57
2019-01-27T21:13:43.025Z,160.03
2019-01-27T21:16:52.518Z,119.90
2019-01-27T21:19:49.527Z,151.87
2019-01-27T21:23:19.016Z,84.20
2019-01-27T21:26:10.312Z,48.67
2019-01-27T21:29:00.398Z,73.47
2019-01-27T21:37:45.958Z,31.33
2019-01-27T21:43:47.745Z,27.83
2019-01-27T21:46:32.166Z,29.97
2019-01-27T21:49:23.182Z,29.90
2019-01-27T21:52:13.715Z,31.03
2019-01-27T21:58:35.584Z,36.03
2019-01-27T22:02:06.094Z,42.27
2019-01-27T22:08:08.932Z,38.97
2019-01-27T22:10:59.835Z,35.90
2019-01-27T22:17:07.872Z,39.10
2019-01-27T22:19:58.678Z,34.70
2019-01-27T22:22:50.150Z,35.37
2019-01-27T22:25:41.168Z,35.13
2019-01-27T22:28:32.134Z,31.40
2019-01-27T22:31:23.024Z,30.83
2019-01-27T22:34:13.756Z,34.67
2019-01-27T22:37:04.979Z,36.17
2019-01-27T22:39:55.748Z,36.07
2019-01-27T22:42:46.656Z,38.10
2019-01-27T22:48:52.271Z,38.17
2019-01-27T22:51:39.651Z,36.97
2019-01-27T22:54:30.853Z,39.30
2019-01-27T22:57:21.681Z,38.00
2019-01-27T23:03:43.930Z,36.20
2019-01-27T23:06:34.812Z,35.90
2019-01-27T23:09:25.960Z,39.43
2019-01-27T23:12:16.916Z,35.97
2019-01-27T23:15:07.980Z,37.13
2019-01-27T23:17:59.512Z,38.03
2019-01-27T23:21:04.529Z,37.77
2019-01-27T23:23:43.584Z,44.03
2019-01-27T23:26:47.052Z,42.53
2019-01-27T23:32:24.856Z,40.60
2019-01-27T23:35:15.646Z,46.07
2019-01-27T23:38:06.828Z,46.10
2019-01-27T23:40:57.801Z,44.93
2019-01-27T23:44:27.511Z,45.87
2019-01-27T23:47:11.008Z,44.97
2019-01-27T23:50:02.444Z,47.47
2019-01-27T23:57:02.286Z,42.90
2019-01-27T23:59:53.170Z,44.43
